Haid, Texas
Current Conditions -  °F | °C
As of 2:10 AM on Tuesday 27 Jan 2015 (Local Time) from KARM Reporting Station
Clear Clear  
Wind Chill: 46°   Ceiling: Unl
Heat Index: 49°   Visibility: 10mi
Dew Point: 44°   Wind: 8mph
Humidity: 82%   Direction: 230°SW
Pressure: 30.17"   Gusts: NA
Location:  29.2155°N, 96.0266°W
Report Text: KARM 270810Z AUTO 23007KT 10SM CLR 10/07 A3017 RMK AO2 T00950066
Loading
Personal Weather Stations






























Interactive Weather Map New forecast layout! Learn more

10-Day Weather Forecast

Advertisements
Track Severe Weather on mobile